sensor_id;sensor_type;location;lat;lon;timestamp;P1;durP1;ratioP1;P2;durP2;ratioP2
17091;SDS011;8661;45.700;4.880;2023-11-22T00:00:49;5.20;;;3.50;;
17091;SDS011;8661;45.700;4.880;2023-11-22T00:03:16;6.23;;;4.00;;
17091;SDS011;8661;45.700;4.880;2023-11-22T00:05:43;5.70;;;3.70;;
17091;SDS011;8661;45.700;4.880;2023-11-22T00:08:09;7.30;;;4.30;;
17091;SDS011;8661;45.700;4.880;2023-11-22T00:10:37;6.27;;;4.43;;
17091;SDS011;8661;45.700;4.880;2023-11-22T00:13:05;5.77;;;3.90;;
17091;SDS011;8661;45.700;4.880;2023-11-22T00:15:32;7.20;;;3.80;;
17091;SDS011;8661;45.700;4.880;2023-11-22T00:18:01;4.90;;;3.53;;
17091;SDS011;8661;45.700;4.880;2023-11-22T00:20:28;5.17;;;3.60;;
17091;SDS011;8661;45.700;4.880;2023-11-22T00:22:55;6.40;;;3.97;;
17091;SDS011;8661;45.700;4.880;2023-11-22T00:25:22;7.77;;;3.83;;
17091;SDS011;8661;45.700;4.880;2023-11-22T00:27:49;5.60;;;4.20;;
17091;SDS011;8661;45.700;4.880;2023-11-22T00:30:18;5.70;;;3.80;;
17091;SDS011;8661;45.700;4.880;2023-11-22T00:32:45;5.30;;;3.80;;
17091;SDS011;8661;45.700;4.880;2023-11-22T00:35:12;7.10;;;3.90;;
17091;SDS011;8661;45.700;4.880;2023-11-22T00:37:39;5.60;;;3.53;;
17091;SDS011;8661;45.700;4.880;2023-11-22T00:40:07;8.83;;;3.90;;
17091;SDS011;8661;45.700;4.880;2023-11-22T00:42:36;7.73;;;4.40;;
17091;SDS011;8661;45.700;4.880;2023-11-22T00:45:05;8.40;;;4.00;;
17091;SDS011;8661;45.700;4.880;2023-11-22T00:47:34;6.83;;;4.57;;
17091;SDS011;8661;45.700;4.880;2023-11-22T00:50:01;7.97;;;4.57;;
17091;SDS011;8661;45.700;4.880;2023-11-22T00:52:29;7.03;;;4.40;;
17091;SDS011;8661;45.700;4.880;2023-11-22T00:54:56;6.63;;;4.00;;
17091;SDS011;8661;45.700;4.880;2023-11-22T00:57:23;5.00;;;3.73;;
17091;SDS011;8661;45.700;4.880;2023-11-22T00:59:52;6.37;;;3.80;;
17091;SDS011;8661;45.700;4.880;2023-11-22T01:02:19;4.30;;;3.43;;
17091;SDS011;8661;45.700;4.880;2023-11-22T01:04:47;7.03;;;3.80;;
17091;SDS011;8661;45.700;4.880;2023-11-22T01:07:14;5.27;;;3.80;;
17091;SDS011;8661;45.700;4.880;2023-11-22T01:09:41;7.20;;;3.63;;
17091;SDS011;8661;45.700;4.880;2023-11-22T01:12:08;5.57;;;4.00;;
17091;SDS011;8661;45.700;4.880;2023-11-22T01:14:37;8.63;;;4.17;;
17091;SDS011;8661;45.700;4.880;2023-11-22T01:17:04;6.77;;;4.00;;
17091;SDS011;8661;45.700;4.880;2023-11-22T01:19:31;6.37;;;3.43;;
17091;SDS011;8661;45.700;4.880;2023-11-22T01:21:59;5.17;;;3.53;;
17091;SDS011;8661;45.700;4.880;2023-11-22T01:24:26;4.43;;;3.87;;
17091;SDS011;8661;45.700;4.880;2023-11-22T01:26:53;7.17;;;4.13;;
17091;SDS011;8661;45.700;4.880;2023-11-22T01:29:19;5.97;;;3.60;;
17091;SDS011;8661;45.700;4.880;2023-11-22T01:31:46;8.00;;;4.00;;
17091;SDS011;8661;45.700;4.880;2023-11-22T01:34:13;9.90;;;4.20;;
17091;SDS011;8661;45.700;4.880;2023-11-22T01:36:41;5.80;;;4.23;;
17091;SDS011;8661;45.700;4.880;2023-11-22T01:39:11;7.50;;;4.47;;
17091;SDS011;8661;45.700;4.880;2023-11-22T01:41:39;6.57;;;3.90;;
17091;SDS011;8661;45.700;4.880;2023-11-22T01:44:07;7.93;;;4.43;;
17091;SDS011;8661;45.700;4.880;2023-11-22T01:46:34;5.80;;;4.37;;
17091;SDS011;8661;45.700;4.880;2023-11-22T01:49:01;6.43;;;4.47;;
17091;SDS011;8661;45.700;4.880;2023-11-22T01:51:28;7.10;;;4.90;;
17091;SDS011;8661;45.700;4.880;2023-11-22T01:53:56;8.00;;;4.57;;
17091;SDS011;8661;45.700;4.880;2023-11-22T01:56:26;12.63;;;5.20;;
17091;SDS011;8661;45.700;4.880;2023-11-22T01:58:54;8.40;;;5.07;;
17091;SDS011;8661;45.700;4.880;2023-11-22T02:01:22;10.23;;;5.20;;
17091;SDS011;8661;45.700;4.880;2023-11-22T02:03:50;8.57;;;5.37;;
17091;SDS011;8661;45.700;4.880;2023-11-22T02:06:18;8.03;;;5.00;;
17091;SDS011;8661;45.700;4.880;2023-11-22T02:08:46;8.63;;;5.23;;
17091;SDS011;8661;45.700;4.880;2023-11-22T02:11:16;9.43;;;4.97;;
17091;SDS011;8661;45.700;4.880;2023-11-22T02:13:48;8.90;;;5.23;;
17091;SDS011;8661;45.700;4.880;2023-11-22T02:16:15;9.07;;;5.20;;
17091;SDS011;8661;45.700;4.880;2023-11-22T02:18:43;8.20;;;5.10;;
17091;SDS011;8661;45.700;4.880;2023-11-22T02:21:10;7.67;;;5.27;;
17091;SDS011;8661;45.700;4.880;2023-11-22T02:23:38;10.20;;;5.10;;
17091;SDS011;8661;45.700;4.880;2023-11-22T02:26:05;10.60;;;5.00;;
17091;SDS011;8661;45.700;4.880;2023-11-22T02:28:32;9.80;;;5.33;;
17091;SDS011;8661;45.700;4.880;2023-11-22T02:30:59;9.10;;;4.90;;
17091;SDS011;8661;45.700;4.880;2023-11-22T02:33:26;8.07;;;5.07;;
17091;SDS011;8661;45.700;4.880;2023-11-22T02:35:53;6.47;;;4.63;;
17091;SDS011;8661;45.700;4.880;2023-11-22T02:38:20;10.70;;;5.17;;
17091;SDS011;8661;45.700;4.880;2023-11-22T02:40:48;9.83;;;5.27;;
17091;SDS011;8661;45.700;4.880;2023-11-22T02:43:16;9.03;;;5.27;;
17091;SDS011;8661;45.700;4.880;2023-11-22T02:45:43;7.67;;;5.13;;
17091;SDS011;8661;45.700;4.880;2023-11-22T02:48:09;11.70;;;5.77;;
17091;SDS011;8661;45.700;4.880;2023-11-22T02:50:38;8.87;;;5.50;;
17091;SDS011;8661;45.700;4.880;2023-11-22T02:53:08;7.17;;;4.97;;
17091;SDS011;8661;45.700;4.880;2023-11-22T02:55:35;9.53;;;5.37;;
17091;SDS011;8661;45.700;4.880;2023-11-22T02:58:04;10.30;;;5.70;;
17091;SDS011;8661;45.700;4.880;2023-11-22T03:00:31;7.80;;;4.90;;
17091;SDS011;8661;45.700;4.880;2023-11-22T03:02:59;9.90;;;5.47;;
17091;SDS011;8661;45.700;4.880;2023-11-22T03:05:30;11.27;;;5.30;;
17091;SDS011;8661;45.700;4.880;2023-11-22T03:07:57;9.83;;;5.20;;
17091;SDS011;8661;45.700;4.880;2023-11-22T03:10:24;9.93;;;5.37;;
17091;SDS011;8661;45.700;4.880;2023-11-22T03:12:51;9.67;;;5.73;;
17091;SDS011;8661;45.700;4.880;2023-11-22T03:15:20;8.87;;;5.43;;
17091;SDS011;8661;45.700;4.880;2023-11-22T03:17:47;8.23;;;5.83;;
17091;SDS011;8661;45.700;4.880;2023-11-22T03:20:14;9.73;;;5.17;;
17091;SDS011;8661;45.700;4.880;2023-11-22T03:22:41;10.33;;;5.80;;
17091;SDS011;8661;45.700;4.880;2023-11-22T03:25:10;10.07;;;6.20;;
17091;SDS011;8661;45.700;4.880;2023-11-22T03:27:38;9.77;;;5.83;;
17091;SDS011;8661;45.700;4.880;2023-11-22T03:30:05;9.67;;;6.17;;
17091;SDS011;8661;45.700;4.880;2023-11-22T03:32:37;10.17;;;5.63;;
17091;SDS011;8661;45.700;4.880;2023-11-22T03:35:05;10.43;;;6.03;;
17091;SDS011;8661;45.700;4.880;2023-11-22T03:37:32;12.10;;;6.53;;
17091;SDS011;8661;45.700;4.880;2023-11-22T03:39:59;10.07;;;6.20;;
17091;SDS011;8661;45.700;4.880;2023-11-22T03:42:26;13.23;;;5.37;;
17091;SDS011;8661;45.700;4.880;2023-11-22T03:44:53;9.53;;;5.40;;
17091;SDS011;8661;45.700;4.880;2023-11-22T03:47:20;10.00;;;5.00;;
17091;SDS011;8661;45.700;4.880;2023-11-22T03:49:48;10.77;;;5.93;;
17091;SDS011;8661;45.700;4.880;2023-11-22T03:52:15;9.30;;;5.67;;
17091;SDS011;8661;45.700;4.880;2023-11-22T03:54:42;10.17;;;5.90;;
17091;SDS011;8661;45.700;4.880;2023-11-22T03:57:09;10.23;;;5.33;;
17091;SDS011;8661;45.700;4.880;2023-11-22T03:59:36;9.30;;;5.70;;
17091;SDS011;8661;45.700;4.880;2023-11-22T04:02:03;11.37;;;5.80;;
17091;SDS011;8661;45.700;4.880;2023-11-22T04:04:30;11.73;;;5.90;;
17091;SDS011;8661;45.700;4.880;2023-11-22T04:06:58;8.50;;;6.07;;
17091;SDS011;8661;45.700;4.880;2023-11-22T04:09:25;11.77;;;6.37;;
17091;SDS011;8661;45.700;4.880;2023-11-22T04:11:52;10.50;;;5.80;;
17091;SDS011;8661;45.700;4.880;2023-11-22T04:14:19;14.60;;;6.53;;
17091;SDS011;8661;45.700;4.880;2023-11-22T04:16:46;7.97;;;5.70;;
17091;SDS011;8661;45.700;4.880;2023-11-22T04:19:13;10.40;;;6.00;;
17091;SDS011;8661;45.700;4.880;2023-11-22T04:21:40;9.87;;;6.27;;
17091;SDS011;8661;45.700;4.880;2023-11-22T04:24:09;11.67;;;6.17;;
17091;SDS011;8661;45.700;4.880;2023-11-22T04:26:37;10.03;;;5.87;;
17091;SDS011;8661;45.700;4.880;2023-11-22T04:29:04;9.83;;;5.83;;
17091;SDS011;8661;45.700;4.880;2023-11-22T04:31:31;11.37;;;6.97;;
17091;SDS011;8661;45.700;4.880;2023-11-22T04:33:58;13.07;;;7.03;;
17091;SDS011;8661;45.700;4.880;2023-11-22T04:36:25;11.33;;;6.50;;
17091;SDS011;8661;45.700;4.880;2023-11-22T04:38:52;12.93;;;6.43;;
17091;SDS011;8661;45.700;4.880;2023-11-22T04:41:20;8.87;;;5.80;;
17091;SDS011;8661;45.700;4.880;2023-11-22T04:43:50;11.03;;;6.20;;
17091;SDS011;8661;45.700;4.880;2023-11-22T04:46:18;9.97;;;6.20;;
17091;SDS011;8661;45.700;4.880;2023-11-22T04:48:45;9.80;;;6.30;;
17091;SDS011;8661;45.700;4.880;2023-11-22T04:51:16;13.40;;;6.10;;
17091;SDS011;8661;45.700;4.880;2023-11-22T04:53:43;11.30;;;7.13;;
17091;SDS011;8661;45.700;4.880;2023-11-22T04:56:10;9.73;;;6.03;;
17091;SDS011;8661;45.700;4.880;2023-11-22T04:58:38;9.10;;;5.77;;
17091;SDS011;8661;45.700;4.880;2023-11-22T05:01:05;10.80;;;5.93;;
17091;SDS011;8661;45.700;4.880;2023-11-22T05:03:35;9.67;;;5.70;;
17091;SDS011;8661;45.700;4.880;2023-11-22T05:06:03;9.10;;;5.73;;
17091;SDS011;8661;45.700;4.880;2023-11-22T05:08:30;10.53;;;5.63;;
17091;SDS011;8661;45.700;4.880;2023-11-22T05:10:57;10.17;;;5.43;;
17091;SDS011;8661;45.700;4.880;2023-11-22T05:13:24;10.70;;;6.30;;
17091;SDS011;8661;45.700;4.880;2023-11-22T05:15:52;10.53;;;5.60;;
17091;SDS011;8661;45.700;4.880;2023-11-22T05:18:21;11.43;;;6.00;;
17091;SDS011;8661;45.700;4.880;2023-11-22T05:20:48;9.47;;;6.03;;
17091;SDS011;8661;45.700;4.880;2023-11-22T05:23:18;10.37;;;5.53;;
17091;SDS011;8661;45.700;4.880;2023-11-22T05:25:48;10.90;;;6.47;;
17091;SDS011;8661;45.700;4.880;2023-11-22T05:28:16;10.63;;;5.83;;
17091;SDS011;8661;45.700;4.880;2023-11-22T05:30:43;11.03;;;6.30;;
17091;SDS011;8661;45.700;4.880;2023-11-22T05:33:11;8.77;;;5.20;;
17091;SDS011;8661;45.700;4.880;2023-11-22T05:35:38;10.30;;;5.80;;
17091;SDS011;8661;45.700;4.880;2023-11-22T05:38:06;8.27;;;5.37;;
17091;SDS011;8661;45.700;4.880;2023-11-22T05:40:35;10.23;;;5.90;;
17091;SDS011;8661;45.700;4.880;2023-11-22T05:43:02;11.17;;;5.90;;
17091;SDS011;8661;45.700;4.880;2023-11-22T05:45:29;11.13;;;5.27;;
17091;SDS011;8661;45.700;4.880;2023-11-22T05:47:56;14.10;;;6.17;;
17091;SDS011;8661;45.700;4.880;2023-11-22T05:50:24;11.25;;;7.00;;
17091;SDS011;8661;45.700;4.880;2023-11-22T05:52:53;10.00;;;5.90;;
17091;SDS011;8661;45.700;4.880;2023-11-22T05:55:21;13.00;;;6.00;;
17091;SDS011;8661;45.700;4.880;2023-11-22T05:57:48;12.20;;;5.53;;
17091;SDS011;8661;45.700;4.880;2023-11-22T06:00:22;12.87;;;6.23;;
17091;SDS011;8661;45.700;4.880;2023-11-22T06:02:49;10.43;;;5.63;;
17091;SDS011;8661;45.700;4.880;2023-11-22T06:05:43;11.57;;;6.00;;
17091;SDS011;8661;45.700;4.880;2023-11-22T06:08:13;12.27;;;6.43;;
17091;SDS011;8661;45.700;4.880;2023-11-22T06:10:40;14.30;;;6.27;;
17091;SDS011;8661;45.700;4.880;2023-11-22T06:13:10;12.53;;;6.63;;
17091;SDS011;8661;45.700;4.880;2023-11-22T06:16:10;8.93;;;6.00;;
17091;SDS011;8661;45.700;4.880;2023-11-22T06:18:27;15.97;;;6.40;;
17091;SDS011;8661;45.700;4.880;2023-11-22T06:20:56;9.90;;;6.47;;
17091;SDS011;8661;45.700;4.880;2023-11-22T06:23:23;10.30;;;6.47;;
17091;SDS011;8661;45.700;4.880;2023-11-22T06:25:53;12.20;;;6.27;;
17091;SDS011;8661;45.700;4.880;2023-11-22T06:28:21;15.37;;;7.13;;
17091;SDS011;8661;45.700;4.880;2023-11-22T06:30:50;12.10;;;7.40;;
17091;SDS011;8661;45.700;4.880;2023-11-22T06:33:17;11.40;;;6.63;;
17091;SDS011;8661;45.700;4.880;2023-11-22T06:35:45;12.07;;;6.97;;
17091;SDS011;8661;45.700;4.880;2023-11-22T06:38:13;12.57;;;7.33;;
17091;SDS011;8661;45.700;4.880;2023-11-22T06:40:41;11.43;;;7.00;;
17091;SDS011;8661;45.700;4.880;2023-11-22T06:43:10;12.80;;;6.80;;
17091;SDS011;8661;45.700;4.880;2023-11-22T06:45:37;11.73;;;7.43;;
17091;SDS011;8661;45.700;4.880;2023-11-22T06:48:06;12.40;;;7.20;;
17091;SDS011;8661;45.700;4.880;2023-11-22T06:50:33;13.40;;;7.70;;
17091;SDS011;8661;45.700;4.880;2023-11-22T06:53:00;14.70;;;7.23;;
17091;SDS011;8661;45.700;4.880;2023-11-22T06:55:29;12.80;;;7.63;;
17091;SDS011;8661;45.700;4.880;2023-11-22T06:57:58;11.53;;;7.70;;
17091;SDS011;8661;45.700;4.880;2023-11-22T07:00:25;13.93;;;8.13;;
17091;SDS011;8661;45.700;4.880;2023-11-22T07:02:55;14.67;;;8.90;;
17091;SDS011;8661;45.700;4.880;2023-11-22T07:05:22;11.07;;;7.20;;
17091;SDS011;8661;45.700;4.880;2023-11-22T07:07:49;14.03;;;8.97;;
17091;SDS011;8661;45.700;4.880;2023-11-22T07:10:16;14.47;;;8.53;;
17091;SDS011;8661;45.700;4.880;2023-11-22T07:12:47;15.87;;;9.33;;
17091;SDS011;8661;45.700;4.880;2023-11-22T07:15:14;18.77;;;9.23;;
17091;SDS011;8661;45.700;4.880;2023-11-22T07:17:43;14.93;;;9.07;;
17091;SDS011;8661;45.700;4.880;2023-11-22T07:20:10;14.37;;;8.70;;
17091;SDS011;8661;45.700;4.880;2023-11-22T07:22:41;16.13;;;8.50;;
17091;SDS011;8661;45.700;4.880;2023-11-22T07:25:19;19.63;;;9.87;;
17091;SDS011;8661;45.700;4.880;2023-11-22T07:27:51;14.53;;;9.07;;
17091;SDS011;8661;45.700;4.880;2023-11-22T07:30:18;15.70;;;9.30;;
17091;SDS011;8661;45.700;4.880;2023-11-22T07:32:47;17.53;;;8.77;;
17091;SDS011;8661;45.700;4.880;2023-11-22T07:35:15;12.10;;;7.30;;
17091;SDS011;8661;45.700;4.880;2023-11-22T07:37:45;15.57;;;9.03;;
17091;SDS011;8661;45.700;4.880;2023-11-22T07:40:13;16.53;;;9.20;;
17091;SDS011;8661;45.700;4.880;2023-11-22T07:42:40;15.77;;;8.50;;
17091;SDS011;8661;45.700;4.880;2023-11-22T07:45:10;17.57;;;8.73;;
17091;SDS011;8661;45.700;4.880;2023-11-22T07:47:42;15.50;;;8.53;;
17091;SDS011;8661;45.700;4.880;2023-11-22T07:50:09;18.20;;;9.93;;
17091;SDS011;8661;45.700;4.880;2023-11-22T07:52:37;19.87;;;10.93;;
17091;SDS011;8661;45.700;4.880;2023-11-22T07:55:07;18.97;;;8.63;;
17091;SDS011;8661;45.700;4.880;2023-11-22T07:57:35;15.60;;;8.00;;
17091;SDS011;8661;45.700;4.880;2023-11-22T08:00:02;13.30;;;7.80;;
17091;SDS011;8661;45.700;4.880;2023-11-22T08:05:30;15.73;;;8.43;;
17091;SDS011;8661;45.700;4.880;2023-11-22T08:07:59;11.27;;;7.40;;
17091;SDS011;8661;45.700;4.880;2023-11-22T08:10:26;15.27;;;8.27;;
17091;SDS011;8661;45.700;4.880;2023-11-22T08:13:07;15.63;;;8.27;;
17091;SDS011;8661;45.700;4.880;2023-11-22T08:15:34;15.70;;;8.60;;
17091;SDS011;8661;45.700;4.880;2023-11-22T08:18:03;16.20;;;8.20;;
17091;SDS011;8661;45.700;4.880;2023-11-22T08:20:45;14.23;;;7.73;;
17091;SDS011;8661;45.700;4.880;2023-11-22T08:23:20;11.10;;;7.23;;
17091;SDS011;8661;45.700;4.880;2023-11-22T08:25:52;13.97;;;8.10;;
17091;SDS011;8661;45.700;4.880;2023-11-22T08:28:22;11.70;;;7.10;;
17091;SDS011;8661;45.700;4.880;2023-11-22T08:30:49;13.80;;;8.03;;
17091;SDS011;8661;45.700;4.880;2023-11-22T08:33:17;14.20;;;8.23;;
17091;SDS011;8661;45.700;4.880;2023-11-22T08:35:47;11.93;;;7.77;;
17091;SDS011;8661;45.700;4.880;2023-11-22T08:38:46;9.63;;;6.53;;
17091;SDS011;8661;45.700;4.880;2023-11-22T08:41:15;14.50;;;7.10;;
17091;SDS011;8661;45.700;4.880;2023-11-22T08:43:42;14.13;;;7.53;;
17091;SDS011;8661;45.700;4.880;2023-11-22T08:46:13;22.40;;;11.80;;
17091;SDS011;8661;45.700;4.880;2023-11-22T08:48:40;13.93;;;7.90;;
17091;SDS011;8661;45.700;4.880;2023-11-22T08:51:09;14.00;;;7.40;;
17091;SDS011;8661;45.700;4.880;2023-11-22T08:53:38;12.73;;;6.23;;
17091;SDS011;8661;45.700;4.880;2023-11-22T08:56:29;10.20;;;6.50;;
17091;SDS011;8661;45.700;4.880;2023-11-22T08:59:10;8.77;;;5.87;;
17091;SDS011;8661;45.700;4.880;2023-11-22T09:01:38;9.87;;;6.13;;
17091;SDS011;8661;45.700;4.880;2023-11-22T09:04:10;9.90;;;5.87;;
17091;SDS011;8661;45.700;4.880;2023-11-22T09:06:40;11.03;;;6.00;;
17091;SDS011;8661;45.700;4.880;2023-11-22T09:09:07;11.03;;;6.17;;
17091;SDS011;8661;45.700;4.880;2023-11-22T09:11:34;11.10;;;6.00;;
17091;SDS011;8661;45.700;4.880;2023-11-22T09:14:02;10.10;;;6.00;;
17091;SDS011;8661;45.700;4.880;2023-11-22T09:16:34;9.60;;;5.70;;
17091;SDS011;8661;45.700;4.880;2023-11-22T09:19:01;11.13;;;5.77;;
17091;SDS011;8661;45.700;4.880;2023-11-22T09:21:28;9.90;;;6.13;;
17091;SDS011;8661;45.700;4.880;2023-11-22T09:23:57;8.57;;;5.80;;
17091;SDS011;8661;45.700;4.880;2023-11-22T09:26:26;8.47;;;5.43;;
17091;SDS011;8661;45.700;4.880;2023-11-22T09:29:19;10.17;;;5.20;;
17091;SDS011;8661;45.700;4.880;2023-11-22T09:32:07;8.40;;;4.83;;
17091;SDS011;8661;45.700;4.880;2023-11-22T09:34:35;8.00;;;4.90;;
17091;SDS011;8661;45.700;4.880;2023-11-22T09:37:02;8.47;;;5.47;;
17091;SDS011;8661;45.700;4.880;2023-11-22T09:39:31;10.07;;;6.53;;
17091;SDS011;8661;45.700;4.880;2023-11-22T09:41:58;7.40;;;5.27;;
17091;SDS011;8661;45.700;4.880;2023-11-22T09:44:26;6.30;;;4.27;;
17091;SDS011;8661;45.700;4.880;2023-11-22T09:46:53;11.67;;;5.23;;
17091;SDS011;8661;45.700;4.880;2023-11-22T09:49:24;6.57;;;3.90;;
17091;SDS011;8661;45.700;4.880;2023-11-22T09:51:51;7.20;;;4.17;;
17091;SDS011;8661;45.700;4.880;2023-11-22T09:54:22;6.63;;;4.13;;
17091;SDS011;8661;45.700;4.880;2023-11-22T09:56:57;5.00;;;3.63;;
17091;SDS011;8661;45.700;4.880;2023-11-22T09:59:27;6.83;;;3.80;;
17091;SDS011;8661;45.700;4.880;2023-11-22T10:01:56;7.60;;;4.07;;
17091;SDS011;8661;45.700;4.880;2023-11-22T10:04:24;8.47;;;3.80;;
17091;SDS011;8661;45.700;4.880;2023-11-22T10:06:54;5.93;;;3.43;;
17091;SDS011;8661;45.700;4.880;2023-11-22T10:09:23;6.57;;;3.60;;
17091;SDS011;8661;45.700;4.880;2023-11-22T10:11:52;8.57;;;3.90;;
17091;SDS011;8661;45.700;4.880;2023-11-22T10:14:23;5.43;;;3.60;;
17091;SDS011;8661;45.700;4.880;2023-11-22T10:16:57;5.10;;;3.40;;
17091;SDS011;8661;45.700;4.880;2023-11-22T10:19:25;8.53;;;3.27;;
17091;SDS011;8661;45.700;4.880;2023-11-22T10:22:02;7.20;;;4.27;;
17091;SDS011;8661;45.700;4.880;2023-11-22T10:24:30;5.93;;;3.40;;
17091;SDS011;8661;45.700;4.880;2023-11-22T10:26:58;4.90;;;3.30;;
17091;SDS011;8661;45.700;4.880;2023-11-22T10:29:26;3.43;;;2.43;;
17091;SDS011;8661;45.700;4.880;2023-11-22T10:31:54;6.50;;;3.33;;
17091;SDS011;8661;45.700;4.880;2023-11-22T10:34:22;5.07;;;2.67;;
17091;SDS011;8661;45.700;4.880;2023-11-22T10:36:52;5.97;;;2.63;;
17091;SDS011;8661;45.700;4.880;2023-11-22T10:39:22;4.40;;;2.97;;
17091;SDS011;8661;45.700;4.880;2023-11-22T10:41:51;3.63;;;2.70;;
17091;SDS011;8661;45.700;4.880;2023-11-22T10:44:19;6.23;;;3.10;;
17091;SDS011;8661;45.700;4.880;2023-11-22T10:46:49;4.60;;;2.80;;
17091;SDS011;8661;45.700;4.880;2023-11-22T10:49:17;3.97;;;2.90;;
17091;SDS011;8661;45.700;4.880;2023-11-22T10:51:47;3.30;;;2.30;;
17091;SDS011;8661;45.700;4.880;2023-11-22T10:54:19;2.77;;;2.40;;
17091;SDS011;8661;45.700;4.880;2023-11-22T10:56:51;3.40;;;2.47;;
17091;SDS011;8661;45.700;4.880;2023-11-22T10:59:22;4.20;;;2.33;;
17091;SDS011;8661;45.700;4.880;2023-11-22T11:01:54;4.00;;;2.40;;
17091;SDS011;8661;45.700;4.880;2023-11-22T11:04:24;5.50;;;2.10;;
17091;SDS011;8661;45.700;4.880;2023-11-22T11:07:00;5.03;;;2.60;;
17091;SDS011;8661;45.700;4.880;2023-11-22T11:09:51;3.73;;;2.43;;
17091;SDS011;8661;45.700;4.880;2023-11-22T11:12:22;3.87;;;2.70;;
17091;SDS011;8661;45.700;4.880;2023-11-22T11:14:51;4.17;;;2.07;;
17091;SDS011;8661;45.700;4.880;2023-11-22T11:17:19;4.23;;;2.77;;
17091;SDS011;8661;45.700;4.880;2023-11-22T11:20:02;3.40;;;2.57;;
17091;SDS011;8661;45.700;4.880;2023-11-22T11:22:46;2.30;;;1.70;;
17091;SDS011;8661;45.700;4.880;2023-11-22T11:25:24;5.83;;;2.07;;
17091;SDS011;8661;45.700;4.880;2023-11-22T11:27:57;5.57;;;1.80;;
17091;SDS011;8661;45.700;4.880;2023-11-22T11:30:42;5.60;;;2.17;;
17091;SDS011;8661;45.700;4.880;2023-11-22T11:33:15;2.87;;;1.60;;
17091;SDS011;8661;45.700;4.880;2023-11-22T11:35:44;1.93;;;1.30;;
17091;SDS011;8661;45.700;4.880;2023-11-22T11:38:30;2.28;;;1.52;;
17091;SDS011;8661;45.700;4.880;2023-11-22T11:41:38;3.03;;;1.40;;
17091;SDS011;8661;45.700;4.880;2023-11-22T11:44:25;3.00;;;1.65;;
17091;SDS011;8661;45.700;4.880;2023-11-22T11:46:52;4.30;;;1.53;;
17091;SDS011;8661;45.700;4.880;2023-11-22T11:49:36;2.70;;;1.20;;
17091;SDS011;8661;45.700;4.880;2023-11-22T11:52:16;3.30;;;1.10;;
17091;SDS011;8661;45.700;4.880;2023-11-22T11:54:58;2.37;;;1.27;;
17091;SDS011;8661;45.700;4.880;2023-11-22T11:57:41;3.80;;;1.57;;
17091;SDS011;8661;45.700;4.880;2023-11-22T12:00:14;8.20;;;1.40;;
17091;SDS011;8661;45.700;4.880;2023-11-22T12:03:04;1.80;;;1.57;;
17091;SDS011;8661;45.700;4.880;2023-11-22T12:05:50;1.57;;;1.30;;
17091;SDS011;8661;45.700;4.880;2023-11-22T12:08:35;2.00;;;1.40;;
17091;SDS011;8661;45.700;4.880;2023-11-22T12:11:02;2.07;;;1.57;;
17091;SDS011;8661;45.700;4.880;2023-11-22T12:13:31;3.37;;;1.63;;
17091;SDS011;8661;45.700;4.880;2023-11-22T12:16:05;2.67;;;2.00;;
17091;SDS011;8661;45.700;4.880;2023-11-22T12:18:40;3.00;;;1.60;;
17091;SDS011;8661;45.700;4.880;2023-11-22T12:21:09;3.93;;;1.97;;
17091;SDS011;8661;45.700;4.880;2023-11-22T12:23:40;4.73;;;1.90;;
17091;SDS011;8661;45.700;4.880;2023-11-22T12:26:12;3.40;;;1.47;;
17091;SDS011;8661;45.700;4.880;2023-11-22T12:28:48;2.97;;;1.70;;
17091;SDS011;8661;45.700;4.880;2023-11-22T12:31:16;2.17;;;1.47;;
17091;SDS011;8661;45.700;4.880;2023-11-22T12:33:44;3.03;;;2.20;;
17091;SDS011;8661;45.700;4.880;2023-11-22T12:36:21;2.97;;;1.47;;
17091;SDS011;8661;45.700;4.880;2023-11-22T12:38:52;1.77;;;1.60;;
17091;SDS011;8661;45.700;4.880;2023-11-22T12:41:26;2.70;;;1.63;;
17091;SDS011;8661;45.700;4.880;2023-11-22T12:44:03;1.90;;;1.50;;
17091;SDS011;8661;45.700;4.880;2023-11-22T12:46:44;7.73;;;1.50;;
17091;SDS011;8661;45.700;4.880;2023-11-22T12:49:15;1.60;;;1.50;;
17091;SDS011;8661;45.700;4.880;2023-11-22T12:51:49;3.00;;;2.00;;
17091;SDS011;8661;45.700;4.880;2023-11-22T12:54:31;2.37;;;1.90;;
17091;SDS011;8661;45.700;4.880;2023-11-22T12:57:00;1.83;;;1.63;;
17091;SDS011;8661;45.700;4.880;2023-11-22T12:59:28;2.87;;;2.00;;
17091;SDS011;8661;45.700;4.880;2023-11-22T13:01:55;2.57;;;1.80;;
17091;SDS011;8661;45.700;4.880;2023-11-22T13:04:23;3.15;;;2.30;;
17091;SDS011;8661;45.700;4.880;2023-11-22T13:06:53;2.87;;;2.00;;
17091;SDS011;8661;45.700;4.880;2023-11-22T13:09:29;5.37;;;2.10;;
17091;SDS011;8661;45.700;4.880;2023-11-22T13:12:02;2.97;;;2.00;;
17091;SDS011;8661;45.700;4.880;2023-11-22T13:14:30;3.83;;;2.10;;
17091;SDS011;8661;45.700;4.880;2023-11-22T13:17:04;5.10;;;2.10;;
17091;SDS011;8661;45.700;4.880;2023-11-22T13:19:32;2.63;;;2.23;;
17091;SDS011;8661;45.700;4.880;2023-11-22T13:22:11;2.13;;;1.63;;
17091;SDS011;8661;45.700;4.880;2023-11-22T13:24:42;2.47;;;2.10;;
17091;SDS011;8661;45.700;4.880;2023-11-22T13:27:09;3.37;;;2.33;;
17091;SDS011;8661;45.700;4.880;2023-11-22T13:29:36;2.40;;;2.00;;
17091;SDS011;8661;45.700;4.880;2023-11-22T13:32:03;2.27;;;1.93;;
17091;SDS011;8661;45.700;4.880;2023-11-22T13:34:32;2.73;;;1.90;;
17091;SDS011;8661;45.700;4.880;2023-11-22T13:37:00;3.97;;;2.10;;
17091;SDS011;8661;45.700;4.880;2023-11-22T13:39:29;2.57;;;2.27;;
17091;SDS011;8661;45.700;4.880;2023-11-22T13:41:58;2.20;;;2.00;;
17091;SDS011;8661;45.700;4.880;2023-11-22T13:44:25;1.77;;;1.67;;
17091;SDS011;8661;45.700;4.880;2023-11-22T13:46:52;4.90;;;1.70;;
17091;SDS011;8661;45.700;4.880;2023-11-22T13:49:22;2.20;;;1.90;;
17091;SDS011;8661;45.700;4.880;2023-11-22T13:51:50;2.00;;;1.80;;
17091;SDS011;8661;45.700;4.880;2023-11-22T13:54:18;4.60;;;1.70;;
17091;SDS011;8661;45.700;4.880;2023-11-22T13:56:47;3.27;;;2.00;;
17091;SDS011;8661;45.700;4.880;2023-11-22T13:59:21;3.40;;;1.80;;
17091;SDS011;8661;45.700;4.880;2023-11-22T14:01:48;1.70;;;1.60;;
17091;SDS011;8661;45.700;4.880;2023-11-22T14:04:18;3.07;;;2.00;;
17091;SDS011;8661;45.700;4.880;2023-11-22T14:17:27;2.87;;;1.70;;
17091;SDS011;8661;45.700;4.880;2023-11-22T14:20:29;2.30;;;1.60;;
17091;SDS011;8661;45.700;4.880;2023-11-22T14:26:27;3.83;;;1.93;;
17091;SDS011;8661;45.700;4.880;2023-11-22T14:35:41;2.13;;;1.60;;
17091;SDS011;8661;45.700;4.880;2023-11-22T14:38:53;3.97;;;1.70;;
17091;SDS011;8661;45.700;4.880;2023-11-22T14:42:09;2.00;;;1.53;;
17091;SDS011;8661;45.700;4.880;2023-11-22T14:48:38;2.50;;;1.63;;
17091;SDS011;8661;45.700;4.880;2023-11-22T14:51:23;2.00;;;1.50;;
17091;SDS011;8661;45.700;4.880;2023-11-22T14:53:58;2.20;;;1.60;;
17091;SDS011;8661;45.700;4.880;2023-11-22T14:56:45;4.73;;;1.87;;
17091;SDS011;8661;45.700;4.880;2023-11-22T14:59:16;2.00;;;1.50;;
17091;SDS011;8661;45.700;4.880;2023-11-22T15:02:20;2.13;;;1.63;;
17091;SDS011;8661;45.700;4.880;2023-11-22T15:15:10;2.03;;;1.43;;
17091;SDS011;8661;45.700;4.880;2023-11-22T15:17:57;2.40;;;1.40;;
17091;SDS011;8661;45.700;4.880;2023-11-22T15:24:36;1.37;;;1.27;;
17091;SDS011;8661;45.700;4.880;2023-11-22T15:30:51;1.97;;;1.20;;
17091;SDS011;8661;45.700;4.880;2023-11-22T15:33:32;3.73;;;1.20;;
17091;SDS011;8661;45.700;4.880;2023-11-22T15:40:32;2.73;;;1.23;;
17091;SDS011;8661;45.700;4.880;2023-11-22T15:43:20;1.40;;;1.30;;
17091;SDS011;8661;45.700;4.880;2023-11-22T15:46:30;1.30;;;1.13;;
17091;SDS011;8661;45.700;4.880;2023-11-22T15:49:45;1.33;;;1.23;;
17091;SDS011;8661;45.700;4.880;2023-11-22T15:52:14;2.17;;;1.30;;
17091;SDS011;8661;45.700;4.880;2023-11-22T15:54:54;1.73;;;1.40;;
17091;SDS011;8661;45.700;4.880;2023-11-22T15:57:30;1.77;;;1.17;;
17091;SDS011;8661;45.700;4.880;2023-11-22T16:00:31;1.77;;;1.40;;
17091;SDS011;8661;45.700;4.880;2023-11-22T16:03:19;4.77;;;1.50;;
17091;SDS011;8661;45.700;4.880;2023-11-22T16:07:56;1.67;;;1.27;;
17091;SDS011;8661;45.700;4.880;2023-11-22T16:10:05;2.07;;;1.30;;